This is the latest recevied weather packets stored in our database for station/object N7IGG. If no packets are shown the sender has not sent any weather packets the latest 1 day(s).
| Time | Temp. | Humidity | Pressure | Rain* | Wind** | Luminosity | Snow |
|---|---|---|---|---|---|---|---|
| 1777991573 | 12.78° C | 90% | 1015.6 hPa | 0 mm | 0.89 m/s, 194° | 13 W/m² | - |
| 1777991270 | 12.78° C | 90% | 1015.5 hPa | 0 mm | 0.89 m/s, 183° | 12 W/m² | - |
| 1777990967 | 12.78° C | 90% | 1015.6 hPa | 0 mm | 1.79 m/s, 195° | 12 W/m² | - |
| 1777990665 | 12.78° C | 90% | 1015.7 hPa | 0 mm | 1.34 m/s, 178° | 11 W/m² | - |
| 1777990362 | 12.78° C | 90% | 1015.5 hPa | 0 mm | 2.24 m/s, 179° | 11 W/m² | - |
| 1777990058 | 12.78° C | 90% | 1015.3 hPa | 0 mm | 1.34 m/s, 144° | 7 W/m² | - |
| 1777989755 | 12.78° C | 90% | 1015.1 hPa | 0 mm | 1.34 m/s, 157° | 9 W/m² | - |
| 1777989452 | 12.78° C | 90% | 1015.1 hPa | 0 mm | 1.34 m/s, 158° | 9 W/m² | - |
| 1777989148 | 12.78° C | 90% | 1015.2 hPa | 0 mm | 2.68 m/s, 205° | 7 W/m² | - |
| 1777988844 | 12.78° C | 90% | 1015.3 hPa | 0 mm | 1.34 m/s, 157° | 4 W/m² | - |
| 1777988542 | 12.78° C | 89% | 1015.1 hPa | 0 mm | 1.34 m/s, 164° | 5 W/m² | - |
| 1777988238 | 12.78° C | 89% | 1015.1 hPa | 0 mm | 1.79 m/s, 193° | 4 W/m² | - |
| 1777987935 | 12.78° C | 89% | 1015.1 hPa | 0 mm | 1.79 m/s, 157° | 2 W/m² | - |
| 1777987630 | 12.78° C | 89% | 1015.2 hPa | 0 mm | 0.89 m/s, 159° | 2 W/m² | - |
| 1777987328 | 12.78° C | 89% | 1015 hPa | 0 mm | 1.79 m/s, 173° | 1 W/m² | - |
| 1777987025 | 12.78° C | 90% | 1014.7 hPa | 0 mm | 0.89 m/s, 112° | 1 W/m² | - |
| 1777986723 | 12.78° C | 90% | 1014.8 hPa | 0 mm | 0.89 m/s, 114° | 0 W/m² | - |
| 1777986420 | 12.78° C | 90% | 1014.7 hPa | 0 mm | 0.89 m/s, 152° | 0 W/m² | - |
| 1777986119 | 12.78° C | 90% | 1014.6 hPa | 0 mm | 1.34 m/s, 154° | 0 W/m² | - |
| 1777985815 | 12.22° C | 90% | 1014.9 hPa | 0 mm | 1.79 m/s, 181° | 0 W/m² | - |
| 1777985512 | 12.22° C | 90% | 1014.6 hPa | 0 mm | 2.68 m/s, 181° | 0 W/m² | - |
| 1777985209 | 12.22° C | 91% | 1014.6 hPa | 0 mm | 0.45 m/s, 180° | 0 W/m² | - |
| 1777984905 | 12.22° C | 91% | 1014.5 hPa | 0 mm | 2.24 m/s, 196° | 0 W/m² | - |
| 1777984601 | 12.22° C | 91% | 1014.5 hPa | 0 mm | 1.79 m/s, 188° | 0 W/m² | - |
| 1777984298 | 12.78° C | 91% | 1014.5 hPa | 0 mm | 2.68 m/s, 210° | 0 W/m² | - |
* Rain latest hour (hover to see other rain measurements)
** Current wind speed in m/s (hover to see current wind gust speed)